createdAt,value
2018-05-21T00:00:26.265Z,95.50
2018-05-21T00:02:56.731Z,95.40
2018-05-21T00:05:26.464Z,95.30
2018-05-21T00:07:59.400Z,95.00
2018-05-21T00:10:28.034Z,95.10
2018-05-21T00:13:01.737Z,95.20
2018-05-21T00:15:30.472Z,95.60
2018-05-21T00:18:03.482Z,95.60
2018-05-21T00:20:32.799Z,95.60
2018-05-21T00:23:06.023Z,95.50
2018-05-21T00:30:48.150Z,95.70
2018-05-21T00:33:17.605Z,96.00
2018-05-21T00:35:47.826Z,95.90
2018-05-21T00:40:48.923Z,96.00
2018-05-21T00:43:17.624Z,96.70
2018-05-21T00:45:48.077Z,95.80
2018-05-21T00:48:19.249Z,95.90
2018-05-21T00:50:49.089Z,96.10
2018-05-21T00:53:21.136Z,96.00
2018-05-21T00:55:49.895Z,95.90
2018-05-21T00:58:23.258Z,95.90
2018-05-21T01:00:52.723Z,95.90
2018-05-21T01:03:33.994Z,95.90
2018-05-21T01:08:33.337Z,96.30
2018-05-21T01:11:02.753Z,96.30
2018-05-21T01:13:31.694Z,96.10
2018-05-21T01:16:01.092Z,96.60
2018-05-21T01:23:34.803Z,97.00
2018-05-21T01:26:04.254Z,96.90
2018-05-21T01:28:37.251Z,97.00
2018-05-21T01:31:05.895Z,96.90
2018-05-21T01:33:39.097Z,96.90
2018-05-21T01:36:08.731Z,96.90
2018-05-21T01:38:42.450Z,96.80
2018-05-21T01:41:11.097Z,97.00
2018-05-21T01:43:44.339Z,96.90
2018-05-21T01:46:13.943Z,96.90
2018-05-21T01:48:47.300Z,97.00
2018-05-21T01:53:49.783Z,96.90
2018-05-21T01:56:19.931Z,96.90
2018-05-21T01:58:51.764Z,97.10
2018-05-21T02:01:20.796Z,97.30
2018-05-21T02:03:54.587Z,97.30
2018-05-21T02:06:23.613Z,97.40
2018-05-21T02:09:05.971Z,97.40
2018-05-21T02:11:34.954Z,97.30
2018-05-21T02:14:04.819Z,97.00
2018-05-21T02:16:33.501Z,96.90
2018-05-21T02:19:02.937Z,96.10
2018-05-21T02:21:31.571Z,95.20
2018-05-21T02:26:34.541Z,95.00
2018-05-21T02:29:17.093Z,94.80
2018-05-21T02:31:47.242Z,95.00
2018-05-21T02:34:16.320Z,95.20
2018-05-21T02:36:46.089Z,95.10
2018-05-21T02:39:15.011Z,95.10
2018-05-21T02:44:16.285Z,95.20
2018-05-21T02:46:45.245Z,95.60
2018-05-21T02:49:17.628Z,95.50
2018-05-21T02:51:46.271Z,95.40
2018-05-21T02:54:29.074Z,95.50
2018-05-21T02:56:57.761Z,95.80
2018-05-21T03:04:26.571Z,95.70
2018-05-21T03:09:26.160Z,96.10
2018-05-21T03:11:54.856Z,96.50
2018-05-21T03:14:27.735Z,96.60
2018-05-21T03:16:57.531Z,96.80
2018-05-21T03:19:30.640Z,97.00
2018-05-21T03:24:32.780Z,97.10
2018-05-21T03:27:02.552Z,97.20
2018-05-21T03:29:44.005Z,97.20
2018-05-21T03:32:12.666Z,97.40
2018-05-21T03:34:42.876Z,97.10
2018-05-21T03:39:42.607Z,96.40
2018-05-21T03:47:11.275Z,95.20
2018-05-21T03:49:46.351Z,95.00
2018-05-21T03:54:47.900Z,94.10
2018-05-21T03:57:17.288Z,93.80
2018-05-21T04:00:01.204Z,93.40
2018-05-21T04:05:07.147Z,92.40
2018-05-21T04:07:37.488Z,92.00
2018-05-21T04:10:06.147Z,91.70
2018-05-21T04:12:36.089Z,91.40
2018-05-21T04:15:06.598Z,91.60
2018-05-21T04:17:36.772Z,91.70
2018-05-21T04:20:06.220Z,91.70
2018-05-21T04:22:36.332Z,91.60
2018-05-21T04:25:06.099Z,91.30
2018-05-21T04:27:35.004Z,90.60
2018-05-21T04:30:05.853Z,90.60
2018-05-21T04:32:34.896Z,90.00
2018-05-21T04:35:11.504Z,90.10
2018-05-21T04:37:40.181Z,90.20
2018-05-21T04:40:11.822Z,90.70
2018-05-21T04:42:41.263Z,90.00
2018-05-21T04:45:13.405Z,89.90
2018-05-21T04:47:42.372Z,89.30
2018-05-21T04:50:23.895Z,89.50
2018-05-21T04:52:52.839Z,89.50
2018-05-21T04:55:21.524Z,89.70
2018-05-21T04:57:51.327Z,90.20
2018-05-21T05:00:21.813Z,90.30
2018-05-21T05:05:21.988Z,90.60
2018-05-21T05:07:51.404Z,90.60
2018-05-21T05:10:32.442Z,90.50
2018-05-21T05:13:01.812Z,90.50
2018-05-21T05:15:31.252Z,90.50
2018-05-21T05:18:01.441Z,90.50
2018-05-21T05:20:30.127Z,90.30
2018-05-21T05:22:58.781Z,90.40
2018-05-21T05:25:31.551Z,90.30
2018-05-21T05:28:01.327Z,90.00
2018-05-21T05:30:33.584Z,88.80
2018-05-21T05:33:02.557Z,88.20
2018-05-21T05:35:35.204Z,85.90
2018-05-21T05:38:04.275Z,83.50
2018-05-21T05:40:37.696Z,83.10
2018-05-21T05:43:06.741Z,80.80
2018-05-21T05:45:39.829Z,80.00
2018-05-21T05:48:08.883Z,78.60
2018-05-21T05:50:41.688Z,76.80
2018-05-21T05:53:11.467Z,75.60
2018-05-21T06:00:56.029Z,74.80
2018-05-21T06:03:25.559Z,76.80
2018-05-21T06:05:54.649Z,78.90
2018-05-21T06:08:24.082Z,80.60
2018-05-21T06:10:53.517Z,81.10
2018-05-21T06:13:22.173Z,80.40
2018-05-21T06:16:03.728Z,78.40
2018-05-21T06:18:32.624Z,78.10
2018-05-21T06:21:02.800Z,75.10
2018-05-21T06:23:31.487Z,71.50
2018-05-21T06:26:00.500Z,69.40
2018-05-21T06:28:30.000Z,66.70
2018-05-21T06:33:31.976Z,68.40
2018-05-21T06:38:34.687Z,66.20
2018-05-21T06:41:09.409Z,67.60
2018-05-21T06:43:38.021Z,68.50
2018-05-21T06:46:14.310Z,68.20
2018-05-21T06:48:45.003Z,67.90
2018-05-21T06:51:14.075Z,69.80
2018-05-21T06:53:42.796Z,70.70
2018-05-21T06:56:16.261Z,69.70
2018-05-21T06:58:46.468Z,67.90
2018-05-21T07:03:46.751Z,56.80
2018-05-21T07:06:19.834Z,53.20
2018-05-21T07:08:50.021Z,49.70
2018-05-21T07:13:51.355Z,52.40
2018-05-21T07:16:25.519Z,49.90
2018-05-21T07:18:55.228Z,48.80
2018-05-21T07:21:27.531Z,49.70
2018-05-21T07:23:56.978Z,48.30
2018-05-21T07:26:29.756Z,45.00
2018-05-21T07:28:58.455Z,44.00
2018-05-21T07:31:31.203Z,43.90
2018-05-21T07:33:59.838Z,45.10
2018-05-21T07:36:32.732Z,44.30
2018-05-21T07:39:01.671Z,43.10
2018-05-21T07:41:34.935Z,42.50
2018-05-21T07:44:03.617Z,42.50
2018-05-21T07:46:36.843Z,43.00
2018-05-21T07:49:06.356Z,42.20
2018-05-21T08:04:44.224Z,43.90
2018-05-21T08:07:12.920Z,44.00
2018-05-21T08:09:47.770Z,42.90
2018-05-21T08:12:16.847Z,44.90
2018-05-21T08:14:54.569Z,44.30
2018-05-21T08:17:24.235Z,41.00
2018-05-21T08:19:54.634Z,42.60
2018-05-21T08:22:24.757Z,43.80
2018-05-21T08:25:06.337Z,43.50
2018-05-21T08:27:36.844Z,41.60
2018-05-21T08:30:06.036Z,44.40
2018-05-21T08:32:35.675Z,46.70
2018-05-21T08:35:05.032Z,44.50
2018-05-21T08:37:35.006Z,44.60
2018-05-21T08:40:05.553Z,41.20
2018-05-21T08:42:35.044Z,41.80
2018-05-21T08:45:07.904Z,42.70
2018-05-21T08:47:37.376Z,42.90
2018-05-21T08:50:11.623Z,42.50
2018-05-21T08:52:40.301Z,41.50
2018-05-21T08:55:21.377Z,40.00
2018-05-21T08:57:51.816Z,41.10
2018-05-21T09:02:51.664Z,42.20
2018-05-21T09:05:20.650Z,43.50
2018-05-21T09:07:50.097Z,43.30
2018-05-21T09:10:19.854Z,43.70
2018-05-21T09:12:49.811Z,41.50
2018-05-21T09:15:22.845Z,42.20
2018-05-21T09:17:52.296Z,42.40
2018-05-21T09:20:23.318Z,43.80
2018-05-21T09:22:52.040Z,44.10
2018-05-21T09:25:34.171Z,42.10
2018-05-21T09:28:03.692Z,43.50
2018-05-21T09:30:33.483Z,43.90
2018-05-21T09:35:31.763Z,49.20
2018-05-21T09:38:01.851Z,50.30
2018-05-21T09:40:34.290Z,51.90
2018-05-21T09:45:35.213Z,49.80
2018-05-21T09:48:05.215Z,51.10
2018-05-21T09:50:37.144Z,51.80
2018-05-21T09:55:40.071Z,53.30
2018-05-21T09:58:09.899Z,53.00
2018-05-21T10:00:42.677Z,52.90
2018-05-21T10:05:45.366Z,52.90
2018-05-21T10:10:47.991Z,53.50
2018-05-21T10:13:17.001Z,53.80
2018-05-21T10:15:49.795Z,54.40
2018-05-21T10:18:19.039Z,53.40
2018-05-21T10:20:51.981Z,52.60
2018-05-21T10:23:21.735Z,53.50
2018-05-21T10:26:04.010Z,52.10
2018-05-21T10:28:33.735Z,51.70
2018-05-21T10:31:02.456Z,49.10
2018-05-21T10:33:31.596Z,52.20
2018-05-21T10:36:02.057Z,51.90
2018-05-21T10:41:04.885Z,51.20
2018-05-21T10:43:34.995Z,51.00
2018-05-21T11:06:46.487Z,51.10
2018-05-21T11:09:19.367Z,50.10
2018-05-21T11:11:49.905Z,52.40
2018-05-21T11:14:20.335Z,50.90
2018-05-21T11:16:49.416Z,49.30
2018-05-21T11:19:23.148Z,49.20
2018-05-21T11:21:52.565Z,49.70
2018-05-21T11:24:24.064Z,49.90
2018-05-21T11:26:52.696Z,50.60
2018-05-21T11:29:25.922Z,49.10
2018-05-21T11:31:55.697Z,49.70
2018-05-21T11:34:29.472Z,49.90
2018-05-21T11:36:58.716Z,49.80
2018-05-21T11:39:30.822Z,49.10
2018-05-21T11:41:59.955Z,47.60
2018-05-21T11:44:41.825Z,48.50
2018-05-21T11:49:41.171Z,47.10
2018-05-21T11:52:13.195Z,46.90
2018-05-21T11:54:42.297Z,46.20
2018-05-21T11:57:11.736Z,48.00
2018-05-21T11:59:41.568Z,47.40
2018-05-21T12:02:11.673Z,46.90
2018-05-21T12:07:11.623Z,48.80
2018-05-21T12:09:44.900Z,47.70
2018-05-21T12:14:49.936Z,47.10
2018-05-21T12:17:18.977Z,47.40
2018-05-21T12:19:51.557Z,47.10
2018-05-21T12:22:20.268Z,47.10
2018-05-21T12:24:54.317Z,47.40
2018-05-21T12:27:23.767Z,47.60
2018-05-21T12:30:05.697Z,47.10
2018-05-21T12:32:35.411Z,47.30
2018-05-21T12:35:04.442Z,47.00
2018-05-21T12:37:33.100Z,47.60
2018-05-21T12:40:03.213Z,47.10
2018-05-21T12:42:33.085Z,48.10
2018-05-21T12:45:04.337Z,48.20
2018-05-21T12:47:34.172Z,47.70
2018-05-21T12:50:06.439Z,47.80
2018-05-21T12:52:36.690Z,48.00
2018-05-21T12:55:19.076Z,47.60
2018-05-21T12:57:47.855Z,47.50
2018-05-21T13:00:16.919Z,47.10
2018-05-21T13:02:47.436Z,46.60
2018-05-21T13:05:16.555Z,46.40
2018-05-21T13:07:45.246Z,46.40
2018-05-21T13:10:16.416Z,47.40
2018-05-21T13:15:27.992Z,46.90
2018-05-21T13:17:57.333Z,45.60
2018-05-21T13:20:26.393Z,46.50
2018-05-21T13:25:27.476Z,46.30
2018-05-21T13:27:57.656Z,46.90
2018-05-21T13:32:57.063Z,46.20
2018-05-21T13:35:27.683Z,47.90
2018-05-21T13:37:56.718Z,46.50
2018-05-21T13:40:30.400Z,48.00
2018-05-21T13:42:59.580Z,47.50
2018-05-21T13:45:32.196Z,46.80
2018-05-21T13:50:34.648Z,47.90
2018-05-21T13:53:03.411Z,47.30
2018-05-21T13:55:35.984Z,47.10
2018-05-21T13:58:06.720Z,46.90
2018-05-21T14:00:39.863Z,47.40
2018-05-21T14:03:09.637Z,47.80
2018-05-21T14:05:43.092Z,47.30
2018-05-21T14:08:12.089Z,47.00
2018-05-21T14:10:44.140Z,46.30
2018-05-21T14:13:13.663Z,46.80
2018-05-21T14:15:47.200Z,46.40
2018-05-21T14:18:17.015Z,45.60
2018-05-21T14:20:49.080Z,47.00
2018-05-21T14:23:17.810Z,46.10
2018-05-21T14:25:51.368Z,47.50
2018-05-21T14:28:20.076Z,47.00
2018-05-21T14:30:53.329Z,46.20
2018-05-21T14:33:23.861Z,46.10
2018-05-21T14:35:56.573Z,44.80
2018-05-21T14:41:07.212Z,47.40
2018-05-21T14:43:37.009Z,46.90
2018-05-21T14:58:36.708Z,46.60
2018-05-21T15:01:18.348Z,45.60
2018-05-21T15:03:48.264Z,46.50
2018-05-21T15:06:17.668Z,46.60
2018-05-21T15:08:46.717Z,46.70
2018-05-21T15:16:16.182Z,48.30
2018-05-21T15:21:27.625Z,48.80
2018-05-21T15:23:56.756Z,48.70
2018-05-21T15:26:25.727Z,47.70
2018-05-21T15:28:54.439Z,47.30
2018-05-21T15:31:24.151Z,47.30
2018-05-21T15:33:53.778Z,47.40
2018-05-21T15:36:26.192Z,46.80
2018-05-21T15:38:55.393Z,46.90
2018-05-21T15:41:27.708Z,47.30
2018-05-21T15:43:58.072Z,46.70
2018-05-21T15:46:30.839Z,48.20
2018-05-21T15:48:59.605Z,49.70
2018-05-21T15:51:32.496Z,49.30
2018-05-21T15:54:03.902Z,49.60
2018-05-21T15:56:34.931Z,50.30
2018-05-21T15:59:03.771Z,50.10
2018-05-21T16:01:36.828Z,49.30
2018-05-21T16:06:39.013Z,49.60
2018-05-21T16:09:10.960Z,48.70
2018-05-21T16:11:43.681Z,47.10
2018-05-21T16:14:13.305Z,46.70
2018-05-21T16:16:44.094Z,46.90
2018-05-21T16:19:13.846Z,46.90
2018-05-21T16:21:48.717Z,46.80
2018-05-21T16:24:17.706Z,47.20
2018-05-21T16:29:20.496Z,48.60
2018-05-21T16:32:02.018Z,49.30
2018-05-21T16:34:32.505Z,49.70
2018-05-21T16:37:02.635Z,50.30
2018-05-21T16:39:32.425Z,50.40
2018-05-21T16:42:02.249Z,51.00
2018-05-21T16:47:01.537Z,51.30
2018-05-21T16:49:30.502Z,51.50
2018-05-21T16:52:04.229Z,50.90
2018-05-21T16:54:35.760Z,50.30
2018-05-21T16:57:06.612Z,50.10
2018-05-21T17:02:17.463Z,49.80
2018-05-21T17:07:17.244Z,49.00
2018-05-21T17:09:46.785Z,49.20
2018-05-21T17:12:15.439Z,49.90
2018-05-21T17:14:45.503Z,50.00
2018-05-21T17:17:17.692Z,50.50
2018-05-21T17:19:46.837Z,50.60
2018-05-21T17:22:19.364Z,50.70
2018-05-21T17:27:22.156Z,51.40
2018-05-21T17:32:24.386Z,52.10
2018-05-21T17:34:53.437Z,52.70
2018-05-21T17:39:53.728Z,53.60
2018-05-21T17:42:35.108Z,54.70
2018-05-21T17:45:04.374Z,54.30
2018-05-21T17:47:33.605Z,55.70
2018-05-21T17:50:02.390Z,55.70
2018-05-21T17:55:01.034Z,56.20
2018-05-21T17:57:33.483Z,57.40
2018-05-21T18:00:03.126Z,56.50
2018-05-21T18:02:36.580Z,56.40
2018-05-21T18:07:39.414Z,56.90
2018-05-21T18:10:09.390Z,56.80
2018-05-21T18:12:41.857Z,56.30
2018-05-21T18:15:10.556Z,56.40
2018-05-21T18:17:43.828Z,56.40
2018-05-21T18:20:13.303Z,56.60
2018-05-21T18:22:44.809Z,56.00
2018-05-21T18:25:15.452Z,56.80
2018-05-21T18:27:48.744Z,57.20
2018-05-21T18:30:18.319Z,57.70
2018-05-21T18:33:00.000Z,57.50
2018-05-21T18:35:30.056Z,57.90
2018-05-21T18:37:58.837Z,58.50
2018-05-21T18:40:27.806Z,58.60
2018-05-21T18:42:56.889Z,59.20
2018-05-21T18:45:26.816Z,59.60
2018-05-21T18:47:57.791Z,60.70
2018-05-21T18:50:26.909Z,61.20
2018-05-21T18:53:09.260Z,61.80
2018-05-21T18:55:38.428Z,62.20
2018-05-21T18:58:08.232Z,61.50
2018-05-21T19:00:36.956Z,61.00
2018-05-21T19:03:07.501Z,60.50
2018-05-21T19:08:10.237Z,60.30
2018-05-21T19:10:39.256Z,61.30
2018-05-21T19:13:21.116Z,62.30
2018-05-21T19:15:51.857Z,62.50
2018-05-21T19:20:50.205Z,69.90
2018-05-21T19:23:19.136Z,75.70
2018-05-21T19:25:48.220Z,76.80
2018-05-21T19:30:47.181Z,80.00
2018-05-21T19:33:29.751Z,81.50
2018-05-21T19:35:59.078Z,80.20
2018-05-21T19:38:28.860Z,80.70
2018-05-21T19:40:57.913Z,80.60
2018-05-21T19:45:57.154Z,77.60
2018-05-21T19:48:27.467Z,75.00
2018-05-21T19:50:57.927Z,73.40
2018-05-21T19:53:29.024Z,72.80
2018-05-21T19:55:59.236Z,72.50
2018-05-21T19:58:31.631Z,71.50
2018-05-21T20:01:00.756Z,70.40
2018-05-21T20:03:33.817Z,70.50
2018-05-21T20:08:35.829Z,70.30
2018-05-21T20:11:04.780Z,71.60
2018-05-21T20:13:38.386Z,79.70
2018-05-21T20:16:07.108Z,86.00
2018-05-21T20:18:40.917Z,89.00
2018-05-21T20:21:09.977Z,90.90
2018-05-21T20:23:51.641Z,91.30
2018-05-21T20:26:21.136Z,90.90
2018-05-21T20:28:49.823Z,90.80
2018-05-21T20:31:18.474Z,90.60
2018-05-21T20:33:47.618Z,90.50
2018-05-21T20:36:17.097Z,90.30
2018-05-21T20:38:59.835Z,90.40
2018-05-21T20:41:29.555Z,91.10
2018-05-21T20:43:58.979Z,91.70
2018-05-21T20:48:58.388Z,92.60
2018-05-21T20:51:27.217Z,93.10
2018-05-21T20:54:00.303Z,93.50
2018-05-21T20:56:30.425Z,93.90
2018-05-21T20:59:01.714Z,94.00
2018-05-21T21:04:04.329Z,94.40
2018-05-21T21:09:15.620Z,94.60
2018-05-21T21:11:46.047Z,94.80
2018-05-21T21:16:45.397Z,95.40
2018-05-21T21:19:15.325Z,95.90
2018-05-21T21:21:44.092Z,95.70
2018-05-21T21:24:14.675Z,95.70
2018-05-21T21:26:44.855Z,95.50
2018-05-21T21:29:18.336Z,95.60
2018-05-21T21:31:47.772Z,95.80
2018-05-21T21:34:18.716Z,95.40
2018-05-21T21:36:47.518Z,95.30
2018-05-21T21:39:21.456Z,95.20
2018-05-21T21:41:50.549Z,95.30
2018-05-21T21:49:25.370Z,95.40
2018-05-21T21:51:54.873Z,95.70
2018-05-21T21:54:28.129Z,95.80
2018-05-21T21:56:57.621Z,96.20
2018-05-21T22:12:40.603Z,94.60
2018-05-21T22:15:10.300Z,94.60
2018-05-21T22:17:42.447Z,94.80
2018-05-21T22:20:15.374Z,95.20
2018-05-21T22:22:48.557Z,95.40
2018-05-21T22:25:18.361Z,95.70
2018-05-21T22:27:50.890Z,95.90
2018-05-21T22:30:20.873Z,96.10
2018-05-21T22:32:50.724Z,96.50
2018-05-21T22:35:21.646Z,97.10
2018-05-21T22:37:52.036Z,97.30
2018-05-21T22:42:51.878Z,97.80
2018-05-21T22:45:20.939Z,97.90
2018-05-21T22:47:51.811Z,97.90
2018-05-21T22:50:22.952Z,98.00
2018-05-21T22:52:54.063Z,97.90
2018-05-21T22:55:22.798Z,98.00
2018-05-21T22:58:04.320Z,98.20
2018-05-21T23:00:33.703Z,98.30
2018-05-21T23:03:02.409Z,98.60
2018-05-21T23:05:31.899Z,99.10
2018-05-21T23:08:02.852Z,99.50
2018-05-21T23:10:32.312Z,99.70
2018-05-21T23:13:06.435Z,99.70
2018-05-21T23:18:08.873Z,99.90
2018-05-21T23:20:38.072Z,99.90
2018-05-21T23:25:39.883Z,99.90
2018-05-21T23:28:12.912Z,99.90
2018-05-21T23:30:42.428Z,99.90
2018-05-21T23:35:45.601Z,99.90
2018-05-21T23:38:18.978Z,99.90
2018-05-21T23:40:47.653Z,99.90
2018-05-21T23:45:48.112Z,99.90
2018-05-21T23:48:31.097Z,99.90
2018-05-21T23:51:01.190Z,99.90
2018-05-21T23:53:29.760Z,99.90
2018-05-21T23:55:59.344Z,99.90
2018-05-21T23:58:29.111Z,99.90
